Impacts TAF Board
For situational awareness. Not to be used for flight planning purposes.
IDs:

KPIT - Pittsburgh Intl, PA, US

Issued at 1134 UTC 19 Aug 2019
Updated at 1431 UTC 19 Aug 2019
Potential Impact None Slight Moderate High
Time<<20/15Z 20/16Z 20/17Z 20/18Z 20/19Z 20/20Z 20/21Z 20/22Z 20/23Z 21/00Z 21/01Z 21/02Z 21/03Z
Type PRVL PRVL PRVL
VIS >6 >6 >6
CIG -- -- --
Cover SCT SCT SCT
FltCat VFR VFR VFR
WX -- -- --
WDir 260 260 260
WSpd 5 5 5
WGst -- -- --
Raw TAF
KPIT 191134Z 1912/2018 20003KT P6SM FEW030 BKN150
  FM191700 27007KT P6SM BKN060
  FM200100 VRB03KT P6SM FEW250
  FM201500 26005KT P6SM SCT035


METAR Board
Radar Display
Forecast Discussion
For situational awareness. Not to be used for flight planning purposes.